createdAt,value
2022-12-29T00:03:48.976Z,101165.53
2022-12-29T00:08:51.248Z,101177.19
2022-12-29T00:14:25.906Z,101184.97
2022-12-29T00:19:47.010Z,101174.81
2022-12-29T00:25:07.780Z,101174.06
2022-12-29T00:30:30.703Z,101168.75
2022-12-29T00:36:02.339Z,101168.66
2022-12-29T00:41:22.926Z,101165.53
2022-12-29T00:46:25.171Z,101172.53
2022-12-29T00:51:27.389Z,101156.41
2022-12-29T00:56:29.521Z,101159.41
2022-12-29T01:01:31.985Z,101173.16
2022-12-29T01:06:34.898Z,101160.38
2022-12-29T01:11:37.077Z,101167.56
2022-12-29T01:16:39.282Z,101160.78
2022-12-29T01:21:41.582Z,101165.44
2022-12-29T01:26:44.293Z,101164.16
2022-12-29T01:31:46.967Z,101165.25
2022-12-29T01:36:49.253Z,101166.56
2022-12-29T01:41:51.431Z,101153.78
2022-12-29T01:46:55.965Z,101163.66
2022-12-29T01:52:05.123Z,101164.91
2022-12-29T01:57:12.671Z,101151.53
2022-12-29T02:02:14.947Z,101141.13
2022-12-29T02:07:22.567Z,101141.03
2022-12-29T02:12:25.199Z,101139.34
2022-12-29T02:17:46.718Z,101115.22
2022-12-29T02:23:04.016Z,101124.72
2022-12-29T02:28:40.825Z,101128.72
2022-12-29T02:33:56.247Z,101126.69
2022-12-29T02:39:07.412Z,101124.41
2022-12-29T02:44:56.215Z,101122.28
2022-12-29T02:50:16.495Z,101120.50
2022-12-29T02:55:20.746Z,101114.00
2022-12-29T03:00:22.903Z,101112.56
2022-12-29T03:05:52.934Z,101108.84
2022-12-29T03:11:05.626Z,101108.16
2022-12-29T03:16:40.902Z,101101.84
2022-12-29T03:22:04.555Z,101105.38
2022-12-29T03:27:10.437Z,101093.09
2022-12-29T03:32:14.448Z,101085.72
2022-12-29T03:37:19.918Z,101086.94
2022-12-29T03:42:26.485Z,101068.31
2022-12-29T03:47:28.658Z,101078.72
2022-12-29T03:52:30.793Z,101081.16
2022-12-29T03:57:32.896Z,101072.53
2022-12-29T04:02:35.222Z,101074.06
2022-12-29T04:07:37.506Z,101094.25
2022-12-29T04:12:39.698Z,101087.94
2022-12-29T04:17:41.882Z,101086.72
2022-12-29T04:22:44.059Z,101075.34
2022-12-29T04:27:46.207Z,101083.38
2022-12-29T04:32:48.330Z,101085.53
2022-12-29T04:37:50.466Z,101088.09
2022-12-29T04:42:52.701Z,101078.44
2022-12-29T04:47:54.863Z,101081.16
2022-12-29T04:52:57.487Z,101074.63
2022-12-29T04:57:59.770Z,101084.50
2022-12-29T05:03:02.307Z,101078.81
2022-12-29T05:08:04.988Z,101084.72
2022-12-29T05:13:07.205Z,101087.87
2022-12-29T05:18:09.757Z,101094.56
2022-12-29T05:23:11.958Z,101085.19
2022-12-29T05:28:14.928Z,101081.22
2022-12-29T05:33:18.607Z,101075.06
2022-12-29T05:38:20.794Z,101068.03
2022-12-29T05:43:22.946Z,101077.94
2022-12-29T05:48:25.084Z,101076.16
2022-12-29T05:53:27.179Z,101070.41
2022-12-29T05:58:29.389Z,101060.81
2022-12-29T06:03:32.729Z,101068.97
2022-12-29T06:08:35.311Z,101062.66
2022-12-29T06:13:37.665Z,101061.81
2022-12-29T06:18:39.877Z,101062.69
2022-12-29T06:23:41.999Z,101063.91
2022-12-29T06:28:44.171Z,101064.03
2022-12-29T06:33:49.835Z,101065.69
2022-12-29T06:38:53.689Z,101069.09
2022-12-29T06:43:55.950Z,101070.66
2022-12-29T06:48:58.069Z,101054.81
2022-12-29T06:54:00.295Z,101080.78
2022-12-29T06:59:02.490Z,101073.81
2022-12-29T07:04:04.794Z,101086.81
2022-12-29T07:09:08.064Z,101073.19
2022-12-29T07:14:12.181Z,101092.31
2022-12-29T07:19:14.392Z,101085.81
2022-12-29T07:29:40.293Z,101094.94
2022-12-29T07:34:42.687Z,101088.19
2022-12-29T07:39:44.858Z,101094.84
2022-12-29T07:44:47.016Z,101096.94
2022-12-29T07:49:49.158Z,101084.25
2022-12-29T07:54:51.338Z,101101.69
2022-12-29T07:59:53.825Z,101109.88
2022-12-29T08:04:56.120Z,101108.50
2022-12-29T08:09:58.921Z,101107.87
2022-12-29T08:15:01.090Z,101099.75
2022-12-29T08:20:03.937Z,101098.06
2022-12-29T08:25:06.365Z,101095.88
2022-12-29T08:30:09.204Z,101096.59
2022-12-29T08:35:11.469Z,101084.72
2022-12-29T08:40:14.607Z,101083.00
2022-12-29T08:45:16.784Z,101086.06
2022-12-29T08:50:18.941Z,101074.37
2022-12-29T08:55:21.543Z,101068.00
2022-12-29T09:00:23.904Z,101078.91
2022-12-29T09:05:26.472Z,101074.03
2022-12-29T09:10:28.666Z,101053.47
2022-12-29T09:15:30.892Z,101067.00
2022-12-29T09:20:33.088Z,101060.72
2022-12-29T09:25:35.369Z,101052.12
2022-12-29T09:30:37.524Z,101036.69
2022-12-29T09:35:46.643Z,101042.91
2022-12-29T09:41:21.085Z,101028.19
2022-12-29T09:46:47.351Z,101029.06
2022-12-29T09:51:53.831Z,101019.34
2022-12-29T09:56:57.408Z,101026.47
2022-12-29T10:02:13.736Z,101010.97
2022-12-29T10:07:30.615Z,101010.16
2022-12-29T10:12:51.766Z,101003.88
2022-12-29T10:18:05.228Z,100991.06
2022-12-29T10:23:28.768Z,100983.13
2022-12-29T10:28:30.883Z,100987.25
2022-12-29T10:33:40.384Z,100990.56
2022-12-29T10:38:52.569Z,100983.31
2022-12-29T10:43:58.100Z,100973.03
2022-12-29T10:49:00.828Z,100963.75
2022-12-29T10:54:21.318Z,100964.28
2022-12-29T10:59:27.066Z,100954.97
2022-12-29T11:05:03.294Z,100942.59
2022-12-29T11:10:39.965Z,100941.38
2022-12-29T11:15:47.367Z,100933.41
2022-12-29T11:20:56.193Z,100949.56
2022-12-29T11:26:17.134Z,100921.25
2022-12-29T11:31:22.915Z,100930.16
2022-12-29T11:36:25.881Z,100923.78
2022-12-29T11:41:32.948Z,100915.00
2022-12-29T11:46:39.439Z,100892.47
2022-12-29T11:51:47.065Z,100881.97
2022-12-29T11:56:52.164Z,100896.59
2022-12-29T12:01:55.906Z,100902.34
2022-12-29T12:07:13.894Z,100905.03
2022-12-29T12:12:32.505Z,100894.87
2022-12-29T12:17:48.963Z,100906.41
2022-12-29T12:23:03.297Z,100892.41
2022-12-29T12:28:14.529Z,100878.16
2022-12-29T12:33:23.881Z,100857.47
2022-12-29T12:38:38.662Z,100848.91
2022-12-29T12:43:50.685Z,100843.44
2022-12-29T12:49:29.843Z,100837.56
2022-12-29T12:54:44.139Z,100833.37
2022-12-29T13:00:12.087Z,100836.41
2022-12-29T13:05:51.794Z,100837.94
2022-12-29T13:11:11.503Z,100840.44
2022-12-29T13:16:18.944Z,100851.38
2022-12-29T13:21:39.823Z,100845.12
2022-12-29T13:27:37.357Z,100848.22
2022-12-29T13:32:54.944Z,100847.78
2022-12-29T13:38:18.725Z,100866.28
2022-12-29T13:43:22.298Z,100861.25
2022-12-29T13:48:41.681Z,100871.84
2022-12-29T13:54:04.130Z,100866.56
2022-12-29T13:59:48.357Z,100868.78
2022-12-29T14:05:22.412Z,100868.34
2022-12-29T14:10:38.950Z,100884.13
2022-12-29T14:15:44.593Z,100890.97
2022-12-29T14:21:00.649Z,100878.34
2022-12-29T14:26:05.798Z,100871.47
2022-12-29T14:31:20.183Z,100872.88
2022-12-29T14:36:31.304Z,100868.81
2022-12-29T14:41:39.080Z,100878.31
2022-12-29T14:46:49.822Z,100883.78
2022-12-29T14:52:23.938Z,100883.38
2022-12-29T14:57:28.162Z,100897.59
2022-12-29T15:02:39.486Z,100897.03
2022-12-29T15:07:42.119Z,100889.28
2022-12-29T15:12:53.613Z,100896.97
2022-12-29T15:17:55.811Z,100918.31
2022-12-29T15:23:11.614Z,100924.00
2022-12-29T15:28:14.313Z,100915.13
2022-12-29T15:33:22.197Z,100928.56
2022-12-29T15:38:33.401Z,100928.78
2022-12-29T15:43:50.884Z,100920.00
2022-12-29T15:48:53.195Z,100925.03
2022-12-29T15:53:55.687Z,100932.78
2022-12-29T15:58:58.440Z,100917.75
2022-12-29T16:04:04.099Z,100930.47
2022-12-29T16:09:32.224Z,100926.91
2022-12-29T16:14:42.692Z,100925.22
2022-12-29T16:20:10.433Z,100926.94
2022-12-29T16:25:18.576Z,100925.66
2022-12-29T16:30:25.371Z,100916.03
2022-12-29T16:35:47.744Z,100930.59
2022-12-29T16:41:03.091Z,100931.87
2022-12-29T16:46:31.293Z,100941.22
2022-12-29T16:51:37.490Z,100943.88
2022-12-29T16:56:45.707Z,100955.47
2022-12-29T17:01:48.118Z,100951.50
2022-12-29T17:06:50.408Z,100952.37
2022-12-29T17:12:05.427Z,100949.88
2022-12-29T17:17:18.423Z,100954.41
2022-12-29T17:22:26.088Z,100962.87
2022-12-29T17:27:53.984Z,100956.22
2022-12-29T17:33:03.108Z,100944.53
2022-12-29T17:38:26.837Z,100940.12
2022-12-29T17:43:36.475Z,100941.97
2022-12-29T17:49:06.174Z,100945.50
2022-12-29T17:54:26.178Z,100941.16
2022-12-29T17:59:28.504Z,100940.12
2022-12-29T18:04:30.809Z,100940.31
2022-12-29T18:09:39.101Z,100940.28
2022-12-29T18:14:41.382Z,100936.97
2022-12-29T18:19:43.639Z,100941.50
2022-12-29T18:24:46.655Z,100933.97
2022-12-29T18:29:49.555Z,100913.16
2022-12-29T18:34:51.831Z,100913.41
2022-12-29T18:39:53.979Z,100909.09
2022-12-29T18:44:56.132Z,100904.09
2022-12-29T18:49:58.326Z,100911.97
2022-12-29T18:55:00.515Z,100915.22
2022-12-29T19:00:04.296Z,100923.53
2022-12-29T19:05:28.981Z,100916.91
2022-12-29T19:10:34.057Z,100915.66
2022-12-29T19:15:41.063Z,100902.50
2022-12-29T19:20:43.888Z,100892.72
2022-12-29T19:25:46.913Z,100887.87
2022-12-29T19:30:52.583Z,100908.84
2022-12-29T19:36:00.242Z,100906.88
2022-12-29T19:41:07.045Z,100899.38
2022-12-29T19:46:11.595Z,100891.03
2022-12-29T19:51:18.775Z,100903.16
2022-12-29T19:56:21.458Z,100896.47
2022-12-29T20:01:24.745Z,100895.22
2022-12-29T20:06:27.216Z,100897.31
2022-12-29T20:11:29.514Z,100888.56
2022-12-29T20:16:31.714Z,100873.97
2022-12-29T20:21:34.127Z,100868.47
2022-12-29T20:26:36.332Z,100883.28
2022-12-29T20:31:38.884Z,100880.72
2022-12-29T20:36:44.287Z,100882.72
2022-12-29T20:41:46.711Z,100874.03
2022-12-29T20:46:49.716Z,100876.94
2022-12-29T20:52:06.126Z,100870.03
2022-12-29T20:57:09.591Z,100879.38
2022-12-29T21:02:20.726Z,100875.22
2022-12-29T21:07:23.562Z,100872.75
2022-12-29T21:12:25.758Z,100878.63
2022-12-29T21:17:28.130Z,100879.03
2022-12-29T21:27:53.608Z,100886.03
2022-12-29T21:32:55.773Z,100852.81
2022-12-29T21:37:58.050Z,100860.78
2022-12-29T21:43:03.263Z,100873.22
2022-12-29T21:48:22.868Z,100860.94
2022-12-29T21:53:38.243Z,100862.19
2022-12-29T21:59:03.963Z,100877.53
2022-12-29T22:04:24.631Z,100871.56
2022-12-29T22:09:47.180Z,100888.03
2022-12-29T22:14:49.357Z,100890.72
2022-12-29T22:19:51.577Z,100871.16
2022-12-29T22:24:53.719Z,100868.25
2022-12-29T22:29:57.012Z,100866.97
2022-12-29T22:35:05.612Z,100875.06
2022-12-29T22:40:11.499Z,100871.94
2022-12-29T22:45:13.841Z,100857.37
2022-12-29T22:50:16.317Z,100858.69
2022-12-29T22:55:18.595Z,100865.81
2022-12-29T23:00:20.807Z,100857.19
2022-12-29T23:05:23.007Z,100869.56
2022-12-29T23:10:25.197Z,100868.97
2022-12-29T23:15:27.399Z,100861.03
2022-12-29T23:20:30.139Z,100846.84
2022-12-29T23:25:32.376Z,100841.59
2022-12-29T23:30:35.222Z,100836.75
2022-12-29T23:35:37.436Z,100825.03
2022-12-29T23:40:39.621Z,100820.19
2022-12-29T23:45:47.379Z,100821.25
2022-12-29T23:50:52.789Z,100824.59
2022-12-29T23:55:56.651Z,100817.09
